Time;durP1;ratioP1;P1;durP2;ratioP2;P2;SDS_P1;SDS_P2;PMS_P1;PMS_P2;Temp;Humidity;BMP_temperature;BMP_pressure;BME280_temperature;BME280_humidity;BME280_pressure;Samples;Min_cycle;Max_cycle;Signal;HPM_P1;HPM_P2
2022/06/11 00:01:43;;;;;;;20.65;10.48;;;;;;;16.52;100.00;102046.97;5018090;28;20658;-47
2022/06/11 00:04:14;;;;;;;22.00;10.80;;;;;;;16.48;100.00;102059.13;5018473;28;20040;-49
2022/06/11 00:06:43;;;;;;;24.00;10.82;;;;;;;16.46;100.00;102052.19;5017957;28;20063;-47
2022/06/11 00:09:10;;;;;;;21.80;10.63;;;;;;;16.41;100.00;102064.34;5018686;28;20628;-48
2022/06/11 00:11:35;;;;;;;15.57;9.77;;;;;;;16.40;100.00;102056.44;5028268;28;20060;-46
2022/06/11 00:14:01;;;;;;;20.25;9.63;;;;;;;16.35;100.00;102062.31;5038704;28;20621;-49
2022/06/11 00:16:28;;;;;;;21.73;10.35;;;;;;;16.35;100.00;102053.41;5034143;28;20104;-46
2022/06/11 00:18:56;;;;;;;20.38;9.80;;;;;;;16.33;100.00;102055.44;5038030;28;20163;-47
2022/06/11 00:21:25;;;;;;;24.60;9.25;;;;;;;16.32;100.00;102059.13;5028785;28;20486;-48
2022/06/11 00:23:50;;;;;;;20.52;9.52;;;;;;;16.28;100.00;102055.94;5037857;28;20060;-46
2022/06/11 00:26:16;;;;;;;24.02;9.32;;;;;;;16.28;100.00;102055.94;5038486;28;20665;-45
2022/06/11 00:28:44;;;;;;;20.30;8.80;;;;;;;16.27;100.00;102059.63;5038546;28;20132;-44
2022/06/11 00:31:10;;;;;;;18.08;9.10;;;;;;;16.20;100.00;102051.38;5035713;28;20029;-44
2022/06/11 00:33:36;;;;;;;23.02;9.07;;;;;;;16.18;100.00;102056.09;5037730;28;20021;-44
2022/06/11 00:36:03;;;;;;;17.30;8.65;;;;;;;16.14;100.00;102051.19;5037364;28;20025;-44
2022/06/11 00:38:29;;;;;;;18.85;8.85;;;;;;;16.10;100.00;102052.56;5037082;28;20033;-46
2022/06/11 00:40:55;;;;;;;23.48;8.48;;;;;;;16.04;100.00;102044.13;5037207;28;20079;-47
2022/06/11 00:43:23;;;;;;;17.10;8.38;;;;;;;15.99;100.00;102041.09;5026354;28;20035;-44
2022/06/11 00:45:58;;;;;;;18.80;7.93;;;;;;;15.97;100.00;102043.13;5038016;28;20420;-45
2022/06/11 00:48:36;;;;;;;16.80;7.72;;;;;;;15.96;100.00;102046.81;5037582;28;20036;-46
2022/06/11 00:51:12;;;;;;;16.13;8.48;;;;;;;15.90;100.00;102039.41;5037371;28;20027;-45
2022/06/11 00:53:39;;;;;;;21.52;9.35;;;;;;;15.89;100.00;102042.28;5037471;28;20028;-44
2022/06/11 00:56:10;;;;;;;18.98;8.80;;;;;;;15.85;100.00;102048.00;5037017;28;20413;-45
2022/06/11 00:58:39;;;;;;;20.02;9.85;;;;;;;15.84;100.00;102049.00;5035076;28;20044;-44
2022/06/11 01:01:05;;;;;;;21.92;8.88;;;;;;;15.80;100.00;102042.28;5035439;28;20029;-44
2022/06/11 01:03:35;;;;;;;18.23;8.88;;;;;;;15.81;100.00;102043.09;5023464;28;20049;-46
2022/06/11 01:06:39;;;;;;;17.90;8.75;;;;;;;15.79;100.00;102045.13;5021900;28;20029;-47
2022/06/11 01:09:18;;;;;;;15.52;8.60;;;;;;;15.82;100.00;102036.72;4992883;28;20051;-47
2022/06/11 01:12:05;;;;;;;19.27;8.73;;;;;;;15.79;100.00;102043.25;5024200;28;20032;-45
2022/06/11 01:14:46;;;;;;;17.17;8.45;;;;;;;15.76;100.00;102040.91;5021210;28;20525;-45
2022/06/11 01:17:20;;;;;;;17.40;8.57;;;;;;;15.74;100.00;102042.88;5021225;28;20420;-47
2022/06/11 01:20:11;;;;;;;17.75;8.07;;;;;;;15.70;100.00;102038.00;5015415;28;20021;-45
2022/06/11 01:23:05;;;;;;;18.05;8.88;;;;;;;15.69;100.00;102047.94;5027850;28;20385;-47
2022/06/11 01:25:40;;;;;;;18.00;8.40;;;;;;;15.64;100.00;102045.72;5012180;28;20503;-44
2022/06/11 01:29:22;;;;;;;18.05;8.32;;;;;;;15.64;100.00;102039.50;5020528;28;20551;-43
2022/06/11 01:31:54;;;;;;;14.23;7.82;;;;;;;15.60;100.00;102040.84;4888461;29;20048;-43
2022/06/11 01:34:28;;;;;;;18.15;8.52;;;;;;;15.58;100.00;102042.84;4893486;29;20518;-48
2022/06/11 01:37:06;;;;;;;23.75;8.75;;;;;;;15.56;100.00;102039.47;4983670;28;20045;-48
2022/06/11 01:39:45;;;;;;;16.52;8.68;;;;;;;15.52;100.00;102032.75;5021801;28;20487;-45
2022/06/11 01:42:30;;;;;;;17.30;7.90;;;;;;;15.54;100.00;102036.13;5018584;28;20049;-46
2022/06/11 01:45:08;;;;;;;17.15;8.07;;;;;;;15.53;100.00;102037.13;5018642;28;20021;-48
2022/06/11 01:47:34;;;;;;;18.70;7.68;;;;;;;15.52;100.00;102030.91;5017971;28;20076;-46
2022/06/11 01:50:00;;;;;;;14.52;8.10;;;;;;;15.52;100.00;102036.28;5019197;28;20483;-45
2022/06/11 01:53:08;;;;;;;17.02;8.18;;;;;;;15.49;100.00;102025.84;5017404;28;20025;-44
2022/06/11 01:55:41;;;;;;;17.15;7.95;;;;;;;15.47;100.00;102033.25;5018276;28;20607;-48
2022/06/11 01:58:26;;;;;;;16.23;8.13;;;;;;;15.45;100.00;102027.19;5018393;28;20018;-45
2022/06/11 02:01:19;;;;;;;20.42;8.30;;;;;;;15.41;100.00;102032.06;5018628;28;20183;-49
2022/06/11 02:04:03;;;;;;;20.52;7.80;;;;;;;15.39;100.00;102039.44;5018525;28;20132;-44
2022/06/11 02:06:47;;;;;;;19.98;8.32;;;;;;;15.37;100.00;102024.47;5017349;28;20029;-43
2022/06/11 02:09:31;;;;;;;17.35;7.75;;;;;;;15.33;100.00;102031.19;5018005;28;20043;-46
2022/06/11 02:12:41;;;;;;;19.55;7.30;;;;;;;15.34;100.00;102032.88;5018059;28;20311;-46
2022/06/11 02:15:50;;;;;;;17.48;7.30;;;;;;;15.33;100.00;102032.03;4996695;28;20045;-46
2022/06/11 02:18:19;;;;;;;13.93;7.43;;;;;;;15.29;100.00;102033.34;4997568;28;20052;-44
2022/06/11 02:21:13;;;;;;;16.38;8.38;;;;;;;15.28;100.00;102037.06;5018084;28;20030;-47
2022/06/11 02:23:45;;;;;;;15.05;7.90;;;;;;;15.24;100.00;102024.91;5015222;28;20057;-47
2022/06/11 02:26:16;;;;;;;13.48;7.78;;;;;;;15.20;100.00;102023.56;5018782;28;20456;-45
2022/06/11 02:28:47;;;;;;;17.65;7.68;;;;;;;15.22;100.00;102032.31;5017892;28;20065;-44
2022/06/11 02:31:15;;;;;;;24.00;8.63;;;;;;;15.21;100.00;102039.56;5017307;28;20038;-44
2022/06/11 02:33:43;;;;;;;16.52;8.63;;;;;;;15.20;100.00;102037.84;5017292;28;20539;-45
2022/06/11 02:36:11;;;;;;;15.20;7.90;;;;;;;15.18;100.00;102045.25;5016163;28;20027;-44
2022/06/11 02:38:37;;;;;;;22.83;8.60;;;;;;;15.16;100.00;102043.75;5017455;28;20053;-45
2022/06/11 02:41:11;;;;;;;20.77;8.23;;;;;;;15.13;100.00;102047.59;5017805;28;20984;-46
2022/06/11 02:43:36;;;;;;;17.13;8.32;;;;;;;15.14;100.00;102046.59;5016117;28;20036;-43
2022/06/11 02:46:40;;;;;;;23.38;8.07;;;;;;;15.08;100.00;102052.63;5017351;28;20063;-43
2022/06/11 02:48:48;;;;;;;21.80;8.10;;;;;;;15.06;100.00;102057.31;5017017;28;20222;-43
2022/06/11 02:51:13;;;;;;;18.95;8.15;;;;;;;15.00;100.00;102056.09;5016933;28;20131;-45
2022/06/11 02:53:39;;;;;;;19.73;8.18;;;;;;;14.98;100.00;102058.09;5017402;28;20029;-44
2022/06/11 02:56:04;;;;;;;18.73;7.80;;;;;;;14.91;100.00;102046.31;5017243;28;20495;-44
2022/06/11 02:58:30;;;;;;;17.90;7.88;;;;;;;14.90;100.00;102058.94;5017473;28;20272;-44
2022/06/11 03:00:55;;;;;;;20.63;9.18;;;;;;;14.86;100.00;102065.59;5017627;28;20206;-45
2022/06/11 03:03:22;;;;;;;19.02;8.82;;;;;;;14.87;100.00;102064.63;5015786;28;20026;-44
2022/06/11 03:05:47;;;;;;;17.80;8.43;;;;;;;14.85;100.00;102074.69;5016040;28;20527;-45
2022/06/11 03:08:12;;;;;;;22.88;8.90;;;;;;;14.83;100.00;102078.53;5017845;28;20166;-45
2022/06/11 03:10:38;;;;;;;15.55;8.30;;;;;;;14.81;100.00;102077.84;5016785;28;20037;-47
2022/06/11 03:13:05;;;;;;;22.63;9.07;;;;;;;14.82;100.00;102075.00;5015621;28;20021;-45
2022/06/11 03:15:31;;;;;;;16.05;9.07;;;;;;;14.77;100.00;102074.66;5017203;28;20021;-43
2022/06/11 03:17:57;;;;;;;18.33;9.10;;;;;;;14.73;100.00;102073.25;5016506;28;20044;-46
2022/06/11 03:20:28;;;;;;;17.98;9.40;;;;;;;14.75;100.00;102076.66;5017217;28;20037;-44
2022/06/11 03:22:53;;;;;;;21.08;8.52;;;;;;;14.72;100.00;102069.75;5015078;28;20032;-48
2022/06/11 03:25:19;;;;;;;20.88;9.27;;;;;;;14.77;100.00;102082.72;5016423;28;20080;-44
2022/06/11 03:27:45;;;;;;;20.55;8.95;;;;;;;14.79;100.00;102083.41;5016521;28;20193;-46
2022/06/11 03:30:13;;;;;;;16.17;9.15;;;;;;;14.78;100.00;102079.00;5017153;28;20264;-44
2022/06/11 03:32:38;;;;;;;19.73;9.00;;;;;;;14.81;100.00;102084.06;5015754;28;20022;-45
2022/06/11 03:35:05;;;;;;;20.40;9.52;;;;;;;14.80;100.00;102086.91;5016908;28;20570;-44
2022/06/11 03:37:31;;;;;;;18.65;8.93;;;;;;;14.79;100.00;102083.41;5015616;28;20033;-44
2022/06/11 03:39:56;;;;;;;19.27;8.32;;;;;;;14.84;100.00;102089.13;5016331;28;20082;-46
2022/06/11 03:42:22;;;;;;;22.63;8.80;;;;;;;14.85;100.00;102090.84;5016609;28;20080;-48
2022/06/11 03:44:47;;;;;;;17.67;8.65;;;;;;;14.90;100.00;102101.97;5016337;28;20033;-45
2022/06/11 03:47:12;;;;;;;17.35;8.40;;;;;;;14.88;100.00;102098.59;5016202;28;20056;-46
2022/06/11 03:49:38;;;;;;;18.92;8.80;;;;;;;14.94;100.00;102104.34;5016911;28;20124;-44
2022/06/11 03:52:05;;;;;;;27.23;9.32;;;;;;;14.96;100.00;102107.72;5014984;28;20257;-45
2022/06/11 03:54:30;;;;;;;19.08;8.32;;;;;;;15.00;100.00;102104.53;5016590;28;20421;-44
2022/06/11 03:56:56;;;;;;;17.88;7.82;;;;;;;15.03;100.00;102114.13;5015502;28;20198;-45
2022/06/11 03:59:22;;;;;;;21.15;8.38;;;;;;;15.08;100.00;102122.56;5017045;28;20029;-46
2022/06/11 04:01:48;;;;;;;20.65;7.40;;;;;;;15.09;100.00;102122.41;5016172;28;20029;-44
2022/06/11 04:04:16;;;;;;;17.63;7.82;;;;;;;15.14;100.00;102118.38;5016615;28;20029;-47
2022/06/11 04:06:54;;;;;;;18.55;7.88;;;;;;;15.17;100.00;102132.38;5007056;28;20120;-43
2022/06/11 04:09:24;;;;;;;17.55;7.95;;;;;;;15.20;100.00;102128.53;5015542;28;20036;-45
2022/06/11 04:11:50;;;;;;;18.05;7.40;;;;;;;15.26;100.00;102127.91;5016835;28;20423;-45
2022/06/11 04:14:15;;;;;;;17.40;6.75;;;;;;;15.29;100.00;102130.25;5014721;28;20081;-43
2022/06/11 04:17:01;;;;;;;25.05;7.25;;;;;;;15.36;100.00;102128.63;5016291;28;20034;-43
2022/06/11 04:19:30;;;;;;;20.63;6.63;;;;;;;15.38;100.00;102134.69;5015932;28;20051;-44
2022/06/11 04:21:57;;;;;;;14.43;6.20;;;;;;;15.41;100.00;102131.66;5014497;28;20056;-45
2022/06/11 04:24:23;;;;;;;20.02;6.30;;;;;;;15.36;100.00;102141.22;5015806;28;20018;-46
2022/06/11 04:26:51;;;;;;;20.65;5.43;;;;;;;15.36;100.00;102143.91;5015976;28;20037;-43
2022/06/11 04:29:19;;;;;;;16.83;4.63;;;;;;;15.37;100.00;102142.91;5015795;28;20247;-45
2022/06/11 04:31:47;;;;;;;20.15;4.38;;;;;;;15.38;100.00;102141.91;5015809;28;20319;-45
2022/06/11 04:34:14;;;;;;;24.45;4.78;;;;;;;15.40;100.00;102148.81;5015778;28;20435;-46
2022/06/11 04:36:41;;;;;;;23.10;4.40;;;;;;;15.40;100.00;102156.88;5002641;28;20104;-45
2022/06/11 04:39:07;;;;;;;23.23;4.60;;;;;;;15.36;100.00;102147.47;5013566;28;20057;-45
2022/06/11 04:41:33;;;;;;;24.45;3.92;;;;;;;15.36;100.00;102154.66;5015543;28;20021;-45
2022/06/11 04:43:58;;;;;;;20.77;4.70;;;;;;;15.38;100.00;102150.00;5015473;28;20035;-44
2022/06/11 04:46:24;;;;;;;25.38;4.05;;;;;;;15.41;100.00;102152.34;5015114;28;20304;-44
2022/06/11 04:48:49;;;;;;;13.65;3.80;;;;;;;15.43;100.00;102156.56;5015488;28;20043;-46
2022/06/11 04:51:16;;;;;;;22.25;3.80;;;;;;;15.44;100.00;102157.41;5014624;28;20133;-49
2022/06/11 04:53:44;;;;;;;18.83;4.13;;;;;;;15.42;100.00;102160.25;5015484;28;20040;-44
2022/06/11 04:56:13;;;;;;;18.02;3.72;;;;;;;15.45;100.00;102164.50;5016134;28;20044;-44
2022/06/11 04:58:38;;;;;;;29.38;4.25;;;;;;;15.45;100.00;102167.19;5015189;28;20265;-43
2022/06/11 05:01:03;;;;;;;24.77;4.35;;;;;;;15.45;100.00;102165.31;5015968;28;20417;-45
2022/06/11 05:03:29;;;;;;;21.80;3.55;;;;;;;15.44;100.00;102155.56;5014531;28;20029;-43
2022/06/11 05:05:54;;;;;;;20.15;3.53;;;;;;;15.53;100.00;102160.97;5013628;28;20602;-44
2022/06/11 05:08:19;;;;;;;28.60;3.90;;;;;;;15.58;100.00;102158.63;5017993;28;20087;-46
2022/06/11 05:10:45;;;;;;;20.58;3.78;;;;;;;15.66;100.00;102158.69;5019601;28;20570;-47
2022/06/11 05:13:12;;;;;;;24.58;3.63;;;;;;;15.66;100.00;102156.84;5019726;28;20652;-43
2022/06/11 05:15:41;;;;;;;22.77;3.67;;;;;;;15.63;100.00;102153.59;5019344;28;20357;-46
2022/06/11 05:18:06;;;;;;;29.60;3.67;;;;;;;15.60;100.00;102162.88;5018648;28;20095;-48
2022/06/11 05:20:32;;;;;;;25.00;3.67;;;;;;;15.59;100.00;102165.72;5018893;28;20029;-44
2022/06/11 05:22:57;;;;;;;20.85;3.50;;;;;;;15.58;100.00;102170.28;5018775;28;20025;-44
2022/06/11 05:25:22;;;;;;;25.92;3.72;;;;;;;15.67;100.00;102165.75;5019015;28;20433;-45
2022/06/11 05:27:48;;;;;;;22.27;3.35;;;;;;;15.81;100.00;102170.53;5012090;28;20068;-46
2022/06/11 05:30:21;;;;;;;25.48;3.80;;;;;;;15.87;100.00;102174.47;5019826;28;20077;-49
2022/06/11 05:32:47;;;;;;;24.60;3.80;;;;;;;15.91;100.00;102162.34;5018086;28;20021;-46
2022/06/11 05:35:17;;;;;;;27.90;4.03;;;;;;;15.92;100.00;102168.56;5019867;28;20211;-45
2022/06/11 05:37:43;;;;;;;28.02;4.05;;;;;;;15.93;100.00;102168.41;5018834;28;20048;-45
2022/06/11 05:40:10;;;;;;;26.60;3.55;;;;;;;15.99;100.00;102175.00;5019158;28;20451;-43
2022/06/11 05:42:35;;;;;;;26.42;4.00;;;;;;;16.02;100.00;102164.72;5019195;28;20029;-45
2022/06/11 05:45:01;;;;;;;26.45;3.47;;;;;;;16.07;100.00;102174.16;5018059;28;20029;-43
2022/06/11 05:47:27;;;;;;;27.00;4.03;;;;;;;16.10;100.00;102171.13;5017249;28;20044;-44
2022/06/11 05:49:55;;;;;;;31.58;3.47;;;;;;;16.04;100.00;102175.34;5019565;28;20479;-43
2022/06/11 05:52:27;;;;;;;24.63;3.92;;;;;;;16.06;100.00;102178.72;5017269;28;20051;-44
2022/06/11 05:54:54;;;;;;;32.55;4.85;;;;;;;16.08;100.00;102175.84;5018824;28;20084;-44
2022/06/11 05:57:23;;;;;;;25.83;3.92;;;;;;;16.14;100.00;102181.44;5018593;28;20032;-45
2022/06/11 05:59:54;;;;;;;31.25;3.70;;;;;;;16.22;100.00;102176.06;5010732;28;20523;-45
2022/06/11 06:02:20;;;;;;;;;;;;;;;16.33;100.00;102182.97;5030810;28;20037;-43
2022/06/11 06:04:46;;;;;;;25.13;4.07;;;;;;;16.40;100.00;102180.47;5031570;28;19919;-44
2022/06/11 06:07:11;;;;;;;26.38;3.75;;;;;;;16.53;100.00;102183.50;5033182;28;20033;-44
2022/06/11 06:09:37;;;;;;;29.63;3.72;;;;;;;16.77;100.00;102185.34;5035266;28;20453;-45
2022/06/11 06:12:04;;;;;;;24.88;3.83;;;;;;;17.00;100.00;102183.84;5023844;28;20033;-44
2022/06/11 06:14:30;;;;;;;27.52;4.50;;;;;;;16.91;99.98;102173.06;5024843;28;20025;-46
2022/06/11 06:16:55;;;;;;;24.13;3.75;;;;;;;16.69;100.00;102179.97;5034992;28;20416;-46
2022/06/11 06:19:21;;;;;;;29.73;4.55;;;;;;;16.65;100.00;102186.72;5031686;28;20018;-44
2022/06/11 06:21:46;;;;;;;30.75;4.00;;;;;;;16.81;100.00;102185.03;5034042;28;20078;-44
2022/06/11 06:24:12;;;;;;;31.35;4.38;;;;;;;16.92;100.00;102198.19;5033418;28;20025;-44
2022/06/11 06:26:38;;;;;;;32.53;4.93;;;;;;;17.08;100.00;102192.78;5028832;28;20144;-44
2022/06/11 06:29:04;;;;;;;33.45;4.30;;;;;;;17.44;100.00;102195.06;5020774;28;20054;-49
2022/06/11 06:31:29;;;;;;;34.40;4.30;;;;;;;17.67;97.30;102194.31;5031728;28;20037;-45
2022/06/11 06:33:58;;;;;;;35.53;4.88;;;;;;;17.82;96.34;102195.25;5033990;28;20815;-45
2022/06/11 06:36:24;;;;;;;34.00;4.60;;;;;;;17.81;95.73;102200.84;5032246;28;20028;-45
2022/06/11 06:38:51;;;;;;;29.60;4.13;;;;;;;17.98;97.97;102205.16;5035867;28;20035;-46
2022/06/11 06:41:16;;;;;;;33.28;5.05;;;;;;;17.97;94.13;102205.34;5035111;28;20032;-44
2022/06/11 06:43:42;;;;;;;34.17;5.07;;;;;;;17.88;96.01;102208.09;5036165;28;20411;-45
2022/06/11 06:46:07;;;;;;;36.75;4.78;;;;;;;17.88;96.96;102208.09;5022410;28;20033;-45
2022/06/11 06:48:33;;;;;;;35.17;4.47;;;;;;;17.89;96.50;102207.06;5027531;28;20313;-47
2022/06/11 06:50:58;;;;;;;36.20;4.78;;;;;;;17.83;97.53;102199.63;5030323;28;20714;-47
2022/06/11 06:53:25;;;;;;;40.58;4.97;;;;;;;17.86;98.94;102214.66;5035050;28;20431;-45
2022/06/11 06:55:51;;;;;;;35.28;5.07;;;;;;;17.88;97.94;102204.53;5035284;28;20075;-45
2022/06/11 06:58:17;;;;;;;32.42;4.78;;;;;;;17.96;97.99;102206.38;5024574;28;20029;-45
2022/06/11 07:00:43;;;;;;;40.97;5.10;;;;;;;17.82;96.29;102194.41;5021605;28;20460;-44
2022/06/11 07:03:11;;;;;;;36.58;5.03;;;;;;;17.68;96.62;102204.09;5024661;28;20171;-44
2022/06/11 07:05:37;;;;;;;36.13;5.07;;;;;;;17.65;99.02;102207.13;5023619;28;20052;-43
2022/06/11 07:08:02;;;;;;;32.85;5.00;;;;;;;17.65;98.00;102215.25;5023880;28;20448;-45
2022/06/11 07:10:28;;;;;;;35.45;5.13;;;;;;;17.60;97.94;102210.38;5026901;28;20135;-44
2022/06/11 07:12:54;;;;;;;27.40;5.05;;;;;;;17.51;98.50;102216.81;5017248;28;20025;-44
2022/06/11 07:15:19;;;;;;;37.13;5.15;;;;;;;17.49;99.82;102203.47;5005176;28;20056;-43
2022/06/11 07:17:49;;;;;;;41.22;5.65;;;;;;;17.56;100.00;102211.72;5015315;28;20393;-44
2022/06/11 07:20:21;;;;;;;29.75;4.85;;;;;;;17.51;100.00;102198.75;5025961;28;20028;-47
2022/06/11 07:22:56;;;;;;;35.90;5.05;;;;;;;17.51;100.00;102200.59;5018085;28;20013;-45
2022/06/11 07:25:22;;;;;;;33.95;5.28;;;;;;;17.79;100.00;102203.72;5020808;28;20158;-47
2022/06/11 07:27:52;;;;;;;34.88;5.25;;;;;;;18.06;98.95;102202.44;5016745;28;20351;-44
2022/06/11 07:30:24;;;;;;;37.50;5.22;;;;;;;18.30;92.32;102197.06;5023528;28;20057;-43
2022/06/11 07:32:54;;;;;;;32.33;4.72;;;;;;;18.38;91.78;102203.25;5019781;28;20044;-45
2022/06/11 07:35:20;;;;;;;32.97;5.28;;;;;;;18.41;93.12;102210.16;5034681;28;20135;-45
2022/06/11 07:37:48;;;;;;;27.60;4.07;;;;;;;18.55;90.68;102208.53;5031185;28;20499;-47
2022/06/11 07:40:13;;;;;;;33.60;4.65;;;;;;;18.55;90.63;102213.94;5010324;28;20121;-47
2022/06/11 07:42:38;;;;;;;35.55;4.97;;;;;;;18.55;89.71;102203.09;5018871;28;20059;-49
2022/06/11 07:45:04;;;;;;;39.50;4.93;;;;;;;18.76;90.77;102207.88;5015313;28;20052;-45
2022/06/11 07:50:14;;;;;;;36.55;5.32;;;;;;;18.88;89.91;102211.00;5013068;28;20060;-46
2022/06/11 07:52:41;;;;;;;30.77;4.55;;;;;;;18.78;88.14;102209.34;5016763;28;20142;-44
2022/06/11 07:55:08;;;;;;;34.35;4.55;;;;;;;18.98;90.70;102207.00;5015539;28;20514;-44
2022/06/11 07:57:34;;;;;;;29.92;4.85;;;;;;;19.20;91.24;102204.44;5023119;28;20100;-44
2022/06/11 07:59:59;;;;;;;32.72;4.85;;;;;;;19.54;89.22;102212.00;5016640;28;20022;-47
2022/06/11 08:02:25;;;;;;;33.85;4.57;;;;;;;19.69;86.67;102209.31;5015720;28;20028;-46
2022/06/11 08:04:51;;;;;;;31.10;4.22;;;;;;;19.88;88.93;102213.31;5015951;28;20083;-46
2022/06/11 08:07:16;;;;;;;35.95;5.65;;;;;;;19.73;84.64;102210.59;5015338;28;20152;-44
2022/06/11 08:09:41;;;;;;;38.00;5.40;;;;;;;19.70;85.41;102212.84;5016457;28;20095;-44
2022/06/11 08:12:07;;;;;;;42.58;5.22;;;;;;;19.71;86.81;102218.06;5016150;28;20492;-45
2022/06/11 08:14:32;;;;;;;30.63;4.78;;;;;;;19.75;87.44;102218.56;5016180;28;20017;-45
2022/06/11 08:16:58;;;;;;;33.10;5.28;;;;;;;20.10;89.64;102222.34;5015303;28;20021;-43
2022/06/11 08:19:23;;;;;;;35.38;5.07;;;;;;;20.42;84.54;102232.94;5015780;28;20021;-46
2022/06/11 08:21:48;;;;;;;21.77;4.00;;;;;;;20.55;83.17;102235.75;5015226;28;20024;-44
2022/06/11 08:24:13;;;;;;;27.95;4.65;;;;;;;20.64;83.36;102231.09;5015728;28;20029;-44
2022/06/11 08:26:39;;;;;;;30.38;5.05;;;;;;;20.47;80.69;102235.91;5016088;28;20026;-44
2022/06/11 08:29:04;;;;;;;27.42;4.60;;;;;;;20.53;82.16;102231.56;5015583;28;20072;-47
2022/06/11 08:31:29;;;;;;;25.65;4.35;;;;;;;20.64;83.79;102233.81;5016014;28;20041;-46
2022/06/11 08:33:55;;;;;;;35.30;4.85;;;;;;;20.84;80.19;102234.84;5026951;28;20036;-46
2022/06/11 08:36:20;;;;;;;31.73;5.10;;;;;;;20.86;80.56;102235.47;5029369;28;20044;-46
2022/06/11 08:38:45;;;;;;;35.28;4.70;;;;;;;20.80;81.66;102243.56;5028984;28;20079;-46
2022/06/11 08:41:20;;;;;;;34.47;4.90;;;;;;;20.93;79.32;102245.56;5030324;28;20630;-48
2022/06/11 08:44:03;;;;;;;31.90;4.45;;;;;;;21.18;76.73;102245.94;5033169;28;20457;-45
2022/06/11 08:46:33;;;;;;;24.52;4.35;;;;;;;21.17;78.19;102239.69;5033199;28;20028;-46
2022/06/11 08:49:05;;;;;;;37.28;4.85;;;;;;;21.20;79.83;102244.72;5025134;28;20025;-47
2022/06/11 08:51:37;;;;;;;26.63;4.70;;;;;;;21.06;77.22;102251.06;5015012;28;20411;-45
2022/06/11 08:54:08;;;;;;;31.80;4.78;;;;;;;20.86;78.75;102237.34;5015033;28;20519;-47
2022/06/11 08:56:50;;;;;;;27.65;4.57;;;;;;;20.70;78.17;102238.44;5015684;28;20044;-46
2022/06/11 08:59:37;;;;;;;40.67;4.63;;;;;;;20.49;78.65;102241.97;5016946;28;20154;-46
2022/06/11 09:02:20;;;;;;;30.77;5.10;;;;;;;20.51;83.04;102239.91;5027444;28;20024;-47
2022/06/11 09:05:07;;;;;;;34.70;4.90;;;;;;;20.50;82.18;102239.06;5022206;28;20029;-60
2022/06/11 09:07:44;;;;;;;30.58;5.28;;;;;;;20.34;81.75;102231.16;5024807;28;20116;-45
2022/06/11 09:10:26;;;;;;;34.47;5.10;;;;;;;20.56;83.39;102239.34;5027215;28;20163;-47
2022/06/11 09:13:00;;;;;;;27.15;4.50;;;;;;;20.50;76.82;102235.50;5031052;28;20028;-46
2022/06/11 09:15:53;;;;;;;37.60;5.50;;;;;;;20.65;79.33;102225.44;5030263;28;20047;-47
2022/06/11 09:18:40;;;;;;;30.58;4.70;;;;;;;20.94;77.66;102236.34;5028626;28;20387;-45
2022/06/11 09:21:28;;;;;;;26.33;4.45;;;;;;;21.20;76.86;102235.75;5028991;28;20032;-46
2022/06/11 09:24:06;;;;;;;29.58;4.18;;;;;;;21.49;75.78;102225.72;5032356;28;20069;-45
2022/06/11 09:26:45;;;;;;;29.35;4.78;;;;;;;21.23;76.60;102240.75;5029669;28;20544;-45
2022/06/11 09:29:13;;;;;;;31.10;4.90;;;;;;;21.08;76.40;102240.88;5027890;28;20320;-46
2022/06/11 09:32:03;;;;;;;34.88;5.30;;;;;;;21.12;79.93;102238.59;5031004;28;20082;-46
2022/06/11 09:34:39;;;;;;;34.42;5.70;;;;;;;21.10;78.82;102235.25;5029325;28;20439;-45
2022/06/11 09:37:33;;;;;;;33.38;4.97;;;;;;;21.35;77.42;102243.75;5032227;28;20024;-44
2022/06/11 09:40:24;;;;;;;31.00;5.07;;;;;;;21.47;78.39;102234.06;5030964;28;20021;-45
2022/06/11 09:43:08;;;;;;;31.30;4.63;;;;;;;21.61;74.03;102232.25;5031907;28;20395;-46
2022/06/11 09:45:54;;;;;;;32.70;4.35;;;;;;;21.85;76.60;102235.53;5008405;28;20470;-44
2022/06/11 09:48:54;;;;;;;29.63;4.10;;;;;;;22.11;74.43;102241.03;5013902;28;20036;-45
2022/06/11 09:51:43;;;;;;;35.03;5.33;;;;;;;22.30;76.42;102230.47;5020929;28;20036;-46
2022/06/11 09:54:37;;;;;;;27.23;4.60;;;;;;;22.39;74.30;102237.41;5007151;28;20589;-48
2022/06/11 09:57:14;;;;;;;32.15;4.55;;;;;;;22.28;74.24;102229.81;5018900;28;20086;-46
2022/06/11 09:59:45;;;;;;;28.00;4.80;;;;;;;22.50;68.04;102228.59;5014615;28;20056;-45
2022/06/11 10:02:27;;;;;;;28.05;4.38;;;;;;;22.81;65.25;102237.22;5017081;28;20014;-44
2022/06/11 10:04:55;;;;;;;25.75;4.18;;;;;;;22.67;59.58;102237.22;5015594;28;20108;-44
2022/06/11 10:07:30;;;;;;;23.75;3.88;;;;;;;22.48;60.63;102235.31;5015488;28;20033;-47
2022/06/11 10:10:03;;;;;;;27.27;4.30;;;;;;;22.52;62.98;102231.13;5016230;28;20041;-46
2022/06/11 10:12:36;;;;;;;25.67;4.05;;;;;;;22.60;57.08;102232.81;5013452;28;20031;-46
2022/06/11 10:15:16;;;;;;;21.20;3.53;;;;;;;22.78;57.58;102237.69;5015225;28;20028;-45
2022/06/11 10:18:08;;;;;;;27.35;4.35;;;;;;;22.67;59.36;102237.22;5015903;28;20538;-46
2022/06/11 10:20:50;;;;;;;21.08;4.00;;;;;;;22.80;58.66;102244.56;5010731;28;20547;-46
2022/06/11 10:23:27;;;;;;;17.48;3.45;;;;;;;22.96;56.13;102235.13;5014830;28;20040;-44
2022/06/11 10:25:59;;;;;;;26.27;3.88;;;;;;;23.20;57.01;102233.72;5011819;28;20386;-44
2022/06/11 10:28:41;;;;;;;25.40;4.55;;;;;;;23.39;56.54;102247.53;5016958;28;20029;-46
2022/06/11 10:31:14;;;;;;;28.40;4.25;;;;;;;23.17;56.73;102242.31;5016653;28;20387;-45
2022/06/11 10:33:56;;;;;;;28.50;4.05;;;;;;;23.37;60.24;102239.56;5016293;28;20101;-44
2022/06/11 10:37:07;;;;;;;26.92;4.10;;;;;;;23.59;59.83;102242.84;5016148;28;20030;-46
2022/06/11 10:39:57;;;;;;;28.15;4.00;;;;;;;23.67;58.04;102239.03;4982169;28;20034;-47
2022/06/11 10:42:39;;;;;;;31.75;4.22;;;;;;;23.64;58.26;102239.47;5016379;28;20066;-44
2022/06/11 10:45:04;;;;;;;23.92;3.83;;;;;;;23.87;55.76;102241.72;5020745;28;20509;-45
2022/06/11 10:47:34;;;;;;;23.70;4.00;;;;;;;24.05;54.71;102240.19;5016273;28;20419;-43
2022/06/11 10:50:29;;;;;;;27.25;3.53;;;;;;;24.08;54.97;102237.84;5015553;28;20531;-44
2022/06/11 10:53:06;;;;;;;24.58;3.83;;;;;;;23.66;55.50;102234.66;5029525;28;20120;-46
2022/06/11 10:55:32;;;;;;;27.80;3.60;;;;;;;23.74;56.07;102233.56;5025810;28;20391;-45
2022/06/11 10:58:01;;;;;;;24.88;4.05;;;;;;;23.81;54.75;102231.63;5030821;28;20018;-44
2022/06/11 11:00:41;;;;;;;23.65;3.90;;;;;;;24.02;54.61;102236.84;5016883;28;20033;-44
2022/06/11 11:03:17;;;;;;;28.67;4.72;;;;;;;24.02;55.46;102238.75;5017418;28;20700;-46
2022/06/11 11:05:46;;;;;;;26.17;4.40;;;;;;;23.91;54.48;102236.69;5033711;28;20140;-45
2022/06/11 11:08:12;;;;;;;30.52;4.50;;;;;;;23.96;55.01;102234.13;5035937;28;20033;-44
2022/06/11 11:10:43;;;;;;;25.98;4.90;;;;;;;24.15;56.12;102233.22;5029407;28;20033;-44
2022/06/11 11:13:19;;;;;;;;;;;;;;;24.26;55.56;102236.31;5033795;28;20427;-45
2022/06/11 11:15:54;;;;;;;27.83;4.20;;;;;;;23.87;54.34;102239.00;5032144;28;19917;-46
2022/06/11 11:18:23;;;;;;;20.23;4.30;;;;;;;23.94;54.28;102228.06;5016027;28;20480;-44
2022/06/11 11:20:51;;;;;;;21.90;3.45;;;;;;;23.93;51.52;102229.97;5011673;28;20464;-44
2022/06/11 11:23:27;;;;;;;16.85;3.55;;;;;;;24.02;51.58;102227.81;5015447;28;20425;-48
2022/06/11 11:25:56;;;;;;;26.50;3.63;;;;;;;23.59;50.78;102226.50;5015533;28;20408;-46
2022/06/11 11:28:30;;;;;;;22.50;4.72;;;;;;;23.36;53.27;102221.50;5015527;28;20029;-45
2022/06/11 11:31:06;;;;;;;21.05;4.20;;;;;;;23.61;54.37;102229.84;5021829;28;20375;-45
2022/06/11 11:33:34;;;;;;;24.90;4.55;;;;;;;23.79;52.40;102220.13;5014165;28;20112;-46
2022/06/11 11:36:21;;;;;;;30.27;4.78;;;;;;;23.73;54.68;102223.72;5014334;28;20413;-46